sensor_id;sensor_type;location;lat;lon;timestamp;pressure;altitude;pressure_sealevel;temperature;humidity
78582;BME280;67878;46.242;5.974;2024-03-23T00:55:52;95144.84;;;21.41;46.97
78582;BME280;67878;46.242;5.974;2024-03-23T00:58:18;95148.28;;;21.41;46.81
78582;BME280;67878;46.242;5.974;2024-03-23T01:00:43;95141.22;;;21.42;46.90
78582;BME280;67878;46.242;5.974;2024-03-23T01:03:09;95144.66;;;21.42;46.90
78582;BME280;67878;46.242;5.974;2024-03-23T01:05:34;95138.59;;;21.42;46.92
78582;BME280;67878;46.242;5.974;2024-03-23T01:08:00;95139.41;;;21.42;46.99
78582;BME280;67878;46.242;5.974;2024-03-23T01:10:25;95149.91;;;21.42;46.94
78582;BME280;67878;46.242;5.974;2024-03-23T01:12:50;95153.38;;;21.43;47.01
78582;BME280;67878;46.242;5.974;2024-03-23T01:15:16;95142.88;;;21.43;47.01
78582;BME280;67878;46.242;5.974;2024-03-23T01:17:41;95141.22;;;21.42;46.98
78582;BME280;67878;46.242;5.974;2024-03-23T01:20:07;95138.41;;;21.43;47.03
78582;BME280;67878;46.242;5.974;2024-03-23T01:22:33;95142.88;;;21.43;47.07
78582;BME280;67878;46.242;5.974;2024-03-23T01:24:58;95134.97;;;21.43;47.08
78582;BME280;67878;46.242;5.974;2024-03-23T01:27:24;95139.22;;;21.44;46.90
78582;BME280;67878;46.242;5.974;2024-03-23T01:29:50;95134.34;;;21.41;47.09
78582;BME280;67878;46.242;5.974;2024-03-23T01:32:17;95137.59;;;21.43;47.02
78582;BME280;67878;46.242;5.974;2024-03-23T01:34:43;95127.09;;;21.43;47.10
78582;BME280;67878;46.242;5.974;2024-03-23T01:37:09;95132.16;;;21.44;47.14
78582;BME280;67878;46.242;5.974;2024-03-23T01:39:34;95137.59;;;21.43;47.16
78582;BME280;67878;46.242;5.974;2024-03-23T01:42:00;95127.91;;;21.43;47.18
78582;BME280;67878;46.242;5.974;2024-03-23T01:44:25;95124.47;;;21.43;47.26
78582;BME280;67878;46.242;5.974;2024-03-23T01:46:51;95125.28;;;21.43;47.24
78582;BME280;67878;46.242;5.974;2024-03-23T01:49:17;95124.47;;;21.43;47.22
78582;BME280;67878;46.242;5.974;2024-03-23T01:51:43;95113.97;;;21.43;47.08
78582;BME280;67878;46.242;5.974;2024-03-23T01:54:10;95115.38;;;21.45;47.35
78582;BME280;67878;46.242;5.974;2024-03-23T01:56:35;95114.41;;;21.46;47.42
78582;BME280;67878;46.242;5.974;2024-03-23T01:59:05;95109.97;;;21.47;47.43
78582;BME280;67878;46.242;5.974;2024-03-23T02:01:31;95112.59;;;21.47;47.40
78582;BME280;67878;46.242;5.974;2024-03-23T02:03:57;95109.97;;;21.47;47.24
78582;BME280;67878;46.242;5.974;2024-03-23T02:06:24;95112.59;;;21.47;47.38
78582;BME280;67878;46.242;5.974;2024-03-23T02:08:49;95113.41;;;21.47;47.29
78582;BME280;67878;46.242;5.974;2024-03-23T02:11:15;95122.09;;;21.48;47.13
78582;BME280;67878;46.242;5.974;2024-03-23T02:13:40;95118.13;;;21.52;47.00
78582;BME280;67878;46.242;5.974;2024-03-23T02:16:06;95117.13;;;21.53;46.92
78582;BME280;67878;46.242;5.974;2024-03-23T02:18:32;95117.13;;;21.53;47.12
78582;BME280;67878;46.242;5.974;2024-03-23T02:20:58;95119.75;;;21.53;47.10
78582;BME280;67878;46.242;5.974;2024-03-23T02:23:24;95115.50;;;21.52;46.88
78582;BME280;67878;46.242;5.974;2024-03-23T02:25:50;95119.75;;;21.53;47.01
78582;BME280;67878;46.242;5.974;2024-03-23T02:28:15;95111.06;;;21.53;47.07
78582;BME280;67878;46.242;5.974;2024-03-23T02:30:42;95106.81;;;21.52;47.03
78582;BME280;67878;46.242;5.974;2024-03-23T02:33:08;95111.22;;;21.51;47.05
78582;BME280;67878;46.242;5.974;2024-03-23T02:35:33;95116.69;;;21.49;47.10
78582;BME280;67878;46.242;5.974;2024-03-23T02:37:59;95121.94;;;21.49;47.04
78582;BME280;67878;46.242;5.974;2024-03-23T02:40:24;95123.75;;;21.49;47.14
78582;BME280;67878;46.242;5.974;2024-03-23T02:42:51;95121.94;;;21.49;47.12
78582;BME280;67878;46.242;5.974;2024-03-23T02:45:16;95113.41;;;21.47;47.00
78582;BME280;67878;46.242;5.974;2024-03-23T02:47:42;95116.84;;;21.48;46.95
78582;BME280;67878;46.242;5.974;2024-03-23T02:50:08;95116.03;;;21.47;47.16
78582;BME280;67878;46.242;5.974;2024-03-23T02:52:35;95117.84;;;21.47;47.12
78582;BME280;67878;46.242;5.974;2024-03-23T02:55:00;95123.91;;;21.47;46.97
78582;BME280;67878;46.242;5.974;2024-03-23T02:57:27;95123.09;;;21.47;47.13
78582;BME280;67878;46.242;5.974;2024-03-23T02:59:53;95128.38;;;21.47;47.14
78582;BME280;67878;46.242;5.974;2024-03-23T03:02:20;95128.53;;;21.45;47.17
78582;BME280;67878;46.242;5.974;2024-03-23T03:04:45;95131.00;;;21.47;47.02
78582;BME280;67878;46.242;5.974;2024-03-23T03:07:11;95131.16;;;21.45;47.04
78582;BME280;67878;46.242;5.974;2024-03-23T03:09:36;95119.84;;;21.45;47.17
78582;BME280;67878;46.242;5.974;2024-03-23T03:12:07;95125.09;;;21.45;47.08
78582;BME280;67878;46.242;5.974;2024-03-23T03:14:33;95122.66;;;21.43;47.02
78582;BME280;67878;46.242;5.974;2024-03-23T03:16:58;95119.03;;;21.44;46.72
78582;BME280;67878;46.242;5.974;2024-03-23T03:19:24;95120.03;;;21.43;46.97
78582;BME280;67878;46.242;5.974;2024-03-23T03:21:49;95114.78;;;21.43;46.95
78582;BME280;67878;46.242;5.974;2024-03-23T03:24:15;95114.94;;;21.42;47.19
78582;BME280;67878;46.242;5.974;2024-03-23T03:26:41;95108.72;;;21.43;46.92
78582;BME280;67878;46.242;5.974;2024-03-23T03:29:06;95110.50;;;21.42;47.10
78582;BME280;67878;46.242;5.974;2024-03-23T03:31:31;95109.69;;;21.42;47.04
78582;BME280;67878;46.242;5.974;2024-03-23T03:33:57;95111.50;;;21.41;47.08
78582;BME280;67878;46.242;5.974;2024-03-23T03:36:23;95106.25;;;21.41;47.07
78582;BME280;67878;46.242;5.974;2024-03-23T03:38:48;95098.38;;;21.41;47.10
78582;BME280;67878;46.242;5.974;2024-03-23T03:41:13;95097.56;;;21.41;47.05
78582;BME280;67878;46.242;5.974;2024-03-23T03:43:39;95100.19;;;21.41;47.07
78582;BME280;67878;46.242;5.974;2024-03-23T03:46:04;95097.56;;;21.41;46.99
78582;BME280;67878;46.242;5.974;2024-03-23T03:48:30;95101.16;;;21.40;47.17
78582;BME280;67878;46.242;5.974;2024-03-23T03:50:56;95079.16;;;21.41;46.82
78582;BME280;67878;46.242;5.974;2024-03-23T03:53:21;95073.09;;;21.40;47.01
78582;BME280;67878;46.242;5.974;2024-03-23T03:55:47;95069.63;;;21.40;46.59
78582;BME280;67878;46.242;5.974;2024-03-23T03:58:12;95060.94;;;21.39;46.95
78582;BME280;67878;46.242;5.974;2024-03-23T04:00:38;95053.88;;;21.40;46.94
78582;BME280;67878;46.242;5.974;2024-03-23T04:03:03;95060.13;;;21.39;47.21
78582;BME280;67878;46.242;5.974;2024-03-23T04:05:29;95056.50;;;21.40;47.07
78582;BME280;67878;46.242;5.974;2024-03-23T04:07:54;95065.38;;;21.39;47.02
78582;BME280;67878;46.242;5.974;2024-03-23T04:10:20;95047.00;;;21.39;47.17
78582;BME280;67878;46.242;5.974;2024-03-23T04:12:47;95027.00;;;21.38;46.85
78582;BME280;67878;46.242;5.974;2024-03-23T04:15:12;95012.84;;;21.39;46.92
78582;BME280;67878;46.242;5.974;2024-03-23T04:17:38;95032.03;;;21.39;46.92
78582;BME280;67878;46.242;5.974;2024-03-23T04:20:04;95057.50;;;21.39;46.94
78582;BME280;67878;46.242;5.974;2024-03-23T04:22:34;95066.19;;;21.39;47.02
78582;BME280;67878;46.242;5.974;2024-03-23T04:25:00;95064.59;;;21.38;46.91
78582;BME280;67878;46.242;5.974;2024-03-23T04:27:28;95072.25;;;21.40;46.93
78582;BME280;67878;46.242;5.974;2024-03-23T04:29:54;95059.13;;;21.40;47.13
78582;BME280;67878;46.242;5.974;2024-03-23T04:32:19;95058.16;;;21.41;46.92
78582;BME280;67878;46.242;5.974;2024-03-23T04:34:45;95065.38;;;21.39;46.94
78582;BME280;67878;46.242;5.974;2024-03-23T04:37:11;95048.63;;;21.40;46.93
78582;BME280;67878;46.242;5.974;2024-03-23T04:39:36;95059.13;;;21.40;46.93
78582;BME280;67878;46.242;5.974;2024-03-23T04:42:03;95056.50;;;21.40;46.86
78582;BME280;67878;46.242;5.974;2024-03-23T04:44:29;95060.13;;;21.39;46.84
78582;BME280;67878;46.242;5.974;2024-03-23T04:46:54;95065.38;;;21.39;46.95
78582;BME280;67878;46.242;5.974;2024-03-23T04:49:20;95094.28;;;21.39;46.92
78582;BME280;67878;46.242;5.974;2024-03-23T04:51:45;95072.47;;;21.38;46.90
78582;BME280;67878;46.242;5.974;2024-03-23T04:54:15;95080.34;;;21.38;46.91
78582;BME280;67878;46.242;5.974;2024-03-23T04:56:40;95108.44;;;21.38;46.98
78582;BME280;67878;46.242;5.974;2024-03-23T04:59:06;95120.75;;;21.37;47.02
78582;BME280;67878;46.242;5.974;2024-03-23T05:01:32;95109.41;;;21.37;46.92
78582;BME280;67878;46.242;5.974;2024-03-23T05:04:01;95112.03;;;21.37;47.07
78582;BME280;67878;46.242;5.974;2024-03-23T05:06:30;95128.63;;;21.37;47.04
78582;BME280;67878;46.242;5.974;2024-03-23T05:08:56;95140.94;;;21.37;47.00
78582;BME280;67878;46.242;5.974;2024-03-23T05:11:24;95124.50;;;21.35;47.13
78582;BME280;67878;46.242;5.974;2024-03-23T08:02:05;95348.91;;;21.71;45.91
78582;BME280;67878;46.242;5.974;2024-03-23T08:04:31;95384.34;;;21.76;45.61
78582;BME280;67878;46.242;5.974;2024-03-23T08:06:56;95378.13;;;21.77;45.42
78582;BME280;67878;46.242;5.974;2024-03-23T08:09:29;95373.84;;;21.76;45.27
78582;BME280;67878;46.242;5.974;2024-03-23T08:12:00;95371.22;;;21.76;45.13
78582;BME280;67878;46.242;5.974;2024-03-23T08:14:29;95392.25;;;21.76;45.24
78582;BME280;67878;46.242;5.974;2024-03-23T08:16:57;95368.59;;;21.76;45.18
78582;BME280;67878;46.242;5.974;2024-03-23T08:19:26;95378.44;;;21.74;44.93
78582;BME280;67878;46.242;5.974;2024-03-23T08:21:57;95380.44;;;21.71;44.98
78582;BME280;67878;46.242;5.974;2024-03-23T08:24:22;95380.44;;;21.71;45.02
78582;BME280;67878;46.242;5.974;2024-03-23T08:26:51;95397.19;;;21.70;44.90
78582;BME280;67878;46.242;5.974;2024-03-23T08:29:22;95402.44;;;21.70;44.71
78582;BME280;67878;46.242;5.974;2024-03-23T08:31:50;95399.00;;;21.70;44.68
78582;BME280;67878;46.242;5.974;2024-03-23T08:34:17;95399.19;;;21.68;44.67
78582;BME280;67878;46.242;5.974;2024-03-23T08:36:42;95405.44;;;21.67;44.67
78582;BME280;67878;46.242;5.974;2024-03-23T08:39:09;95404.63;;;21.67;44.52
78582;BME280;67878;46.242;5.974;2024-03-23T08:41:34;95428.28;;;21.67;44.42
78582;BME280;67878;46.242;5.974;2024-03-23T08:44:00;95432.72;;;21.66;44.40
78582;BME280;67878;46.242;5.974;2024-03-23T08:46:25;95437.16;;;21.66;44.17
78582;BME280;67878;46.242;5.974;2024-03-23T08:48:51;95430.25;;;21.65;44.13
78582;BME280;67878;46.242;5.974;2024-03-23T08:51:18;95421.56;;;21.64;43.95
78582;BME280;67878;46.242;5.974;2024-03-23T08:53:44;95413.66;;;21.64;43.73
78582;BME280;67878;46.242;5.974;2024-03-23T08:56:10;95442.56;;;21.64;43.73
78582;BME280;67878;46.242;5.974;2024-03-23T08:58:37;95439.13;;;21.64;43.63
78582;BME280;67878;46.242;5.974;2024-03-23T09:01:08;95458.53;;;21.63;43.42
78582;BME280;67878;46.242;5.974;2024-03-23T09:03:34;95459.34;;;21.63;43.85
78582;BME280;67878;46.242;5.974;2024-03-23T09:06:00;95465.41;;;21.64;43.59
78582;BME280;67878;46.242;5.974;2024-03-23T09:08:26;95472.50;;;21.63;43.59
78582;BME280;67878;46.242;5.974;2024-03-23T09:10:52;95485.63;;;21.63;43.69
78582;BME280;67878;46.242;5.974;2024-03-23T09:13:18;95477.75;;;21.63;43.65
78582;BME280;67878;46.242;5.974;2024-03-23T09:15:48;95500.41;;;21.64;43.08
78582;BME280;67878;46.242;5.974;2024-03-23T09:18:13;95489.06;;;21.64;43.34
78582;BME280;67878;46.242;5.974;2024-03-23T09:20:39;95486.44;;;21.64;43.38
78582;BME280;67878;46.242;5.974;2024-03-23T09:23:04;95481.19;;;21.64;43.15
78582;BME280;67878;46.242;5.974;2024-03-23T09:25:30;95491.84;;;21.62;43.38
78582;BME280;67878;46.242;5.974;2024-03-23T09:27:55;95456.72;;;21.63;43.32
78582;BME280;67878;46.242;5.974;2024-03-23T09:30:21;95459.34;;;21.63;43.22
78582;BME280;67878;46.242;5.974;2024-03-23T09:32:46;95447.19;;;21.62;43.14
78582;BME280;67878;46.242;5.974;2024-03-23T09:35:12;95439.47;;;21.61;43.19
78582;BME280;67878;46.242;5.974;2024-03-23T09:37:41;95443.94;;;21.60;42.47
78582;BME280;67878;46.242;5.974;2024-03-23T09:40:10;95436.19;;;21.59;42.34
78582;BME280;67878;46.242;5.974;2024-03-23T09:42:36;95450.34;;;21.58;42.78
78582;BME280;67878;46.242;5.974;2024-03-23T09:45:02;95427.66;;;21.57;42.62
78582;BME280;67878;46.242;5.974;2024-03-23T09:47:31;95455.75;;;21.56;42.51
78582;BME280;67878;46.242;5.974;2024-03-23T09:49:57;95441.00;;;21.55;42.36
78582;BME280;67878;46.242;5.974;2024-03-23T09:52:23;95475.16;;;21.55;42.31
78582;BME280;67878;46.242;5.974;2024-03-23T09:54:48;95452.50;;;21.54;42.28
78582;BME280;67878;46.242;5.974;2024-03-23T09:57:14;95421.94;;;21.53;42.19
78582;BME280;67878;46.242;5.974;2024-03-23T09:59:39;95459.38;;;21.55;42.13
78582;BME280;67878;46.242;5.974;2024-03-23T10:02:06;95473.69;;;21.53;42.09
78582;BME280;67878;46.242;5.974;2024-03-23T10:04:39;95460.53;;;21.53;41.21
78582;BME280;67878;46.242;5.974;2024-03-23T10:07:17;95467.63;;;21.52;41.36
78582;BME280;67878;46.242;5.974;2024-03-23T10:09:43;95448.41;;;21.52;41.95
78582;BME280;67878;46.242;5.974;2024-03-23T10:12:12;95466.81;;;21.52;41.45
78582;BME280;67878;46.242;5.974;2024-03-23T10:14:41;95459.06;;;21.50;41.70
78582;BME280;67878;46.242;5.974;2024-03-23T10:17:19;95469.59;;;21.50;41.03
78582;BME280;67878;46.242;5.974;2024-03-23T10:19:46;95495.03;;;21.49;41.64
78582;BME280;67878;46.242;5.974;2024-03-23T10:22:14;95495.19;;;21.48;41.39
78582;BME280;67878;46.242;5.974;2024-03-23T10:24:43;95498.69;;;21.48;41.52
78582;BME280;67878;46.242;5.974;2024-03-23T10:27:08;95481.25;;;21.47;41.50
78582;BME280;67878;46.242;5.974;2024-03-23T10:29:34;95471.56;;;21.48;41.46
78582;BME280;67878;46.242;5.974;2024-03-23T10:32:13;95486.50;;;21.47;41.07
78582;BME280;67878;46.242;5.974;2024-03-23T10:34:39;95483.06;;;21.47;41.40
78582;BME280;67878;46.242;5.974;2024-03-23T10:37:05;95490.13;;;21.46;41.36
78582;BME280;67878;46.242;5.974;2024-03-23T10:39:36;95490.13;;;21.46;40.98
78582;BME280;67878;46.242;5.974;2024-03-23T10:45:24;95490.13;;;21.46;41.24
78582;BME280;67878;46.242;5.974;2024-03-23T10:47:49;95498.00;;;21.46;41.33
78582;BME280;67878;46.242;5.974;2024-03-23T10:50:15;95484.06;;;21.46;41.29
78582;BME280;67878;46.242;5.974;2024-03-23T10:52:46;95461.22;;;21.46;40.90
78582;BME280;67878;46.242;5.974;2024-03-23T10:55:12;95469.28;;;21.45;41.01
78582;BME280;67878;46.242;5.974;2024-03-23T10:58:05;95485.84;;;21.45;40.37
78582;BME280;67878;46.242;5.974;2024-03-23T11:00:31;95463.19;;;21.44;41.17
78582;BME280;67878;46.242;5.974;2024-03-23T11:02:57;95456.94;;;21.45;41.14
78582;BME280;67878;46.242;5.974;2024-03-23T11:07:50;95452.69;;;21.44;41.04
78582;BME280;67878;46.242;5.974;2024-03-23T11:10:30;95438.75;;;21.44;40.21
78582;BME280;67878;46.242;5.974;2024-03-23T11:12:57;95441.38;;;21.44;40.87
78582;BME280;67878;46.242;5.974;2024-03-23T11:15:22;95437.13;;;21.43;40.78
78582;BME280;67878;46.242;5.974;2024-03-23T11:18:20;95456.31;;;21.43;40.13
78582;BME280;67878;46.242;5.974;2024-03-23T11:20:46;95431.03;;;21.42;40.85
78582;BME280;67878;46.242;5.974;2024-03-23T11:23:27;95440.72;;;21.42;39.99
78582;BME280;67878;46.242;5.974;2024-03-23T11:25:52;95456.47;;;21.42;40.73
78582;BME280;67878;46.242;5.974;2024-03-23T11:28:19;95441.72;;;21.41;40.42
78582;BME280;67878;46.242;5.974;2024-03-23T11:30:47;95432.03;;;21.41;40.79
78582;BME280;67878;46.242;5.974;2024-03-23T11:33:15;95425.94;;;21.41;40.57
78582;BME280;67878;46.242;5.974;2024-03-23T11:35:42;95434.81;;;21.40;40.09
78582;BME280;67878;46.242;5.974;2024-03-23T11:38:16;95430.41;;;21.40;40.81
78582;BME280;67878;46.242;5.974;2024-03-23T11:40:47;95432.69;;;21.43;40.53
78582;BME280;67878;46.242;5.974;2024-03-23T11:43:16;95445.63;;;21.45;40.62
78582;BME280;67878;46.242;5.974;2024-03-23T11:45:52;95435.63;;;21.48;39.83
78582;BME280;67878;46.242;5.974;2024-03-23T11:48:20;95427.38;;;21.52;40.28
78582;BME280;67878;46.242;5.974;2024-03-23T11:50:50;95439.38;;;21.54;39.99
78582;BME280;67878;46.242;5.974;2024-03-23T11:53:16;95432.28;;;21.55;40.23
78582;BME280;67878;46.242;5.974;2024-03-23T11:55:52;95429.66;;;21.55;39.85
78582;BME280;67878;46.242;5.974;2024-03-23T11:58:20;95418.34;;;21.54;40.08
78582;BME280;67878;46.242;5.974;2024-03-23T12:01:00;95443.78;;;21.54;39.70
78582;BME280;67878;46.242;5.974;2024-03-23T12:03:28;95429.00;;;21.53;40.34
78582;BME280;67878;46.242;5.974;2024-03-23T12:06:04;95398.47;;;21.52;39.85
78582;BME280;67878;46.242;5.974;2024-03-23T12:08:33;95406.38;;;21.52;40.42
78582;BME280;67878;46.242;5.974;2024-03-23T12:11:10;95406.38;;;21.52;39.97
78582;BME280;67878;46.242;5.974;2024-03-23T12:13:37;95418.50;;;21.53;40.89
78582;BME280;67878;46.242;5.974;2024-03-23T12:16:19;95425.56;;;21.52;40.04
78582;BME280;67878;46.242;5.974;2024-03-23T12:18:47;95445.78;;;21.52;40.49
78582;BME280;67878;46.242;5.974;2024-03-23T12:21:13;95450.19;;;21.51;40.45
78582;BME280;67878;46.242;5.974;2024-03-23T12:23:39;95434.41;;;21.51;40.63
78582;BME280;67878;46.242;5.974;2024-03-23T12:26:05;95427.38;;;21.52;40.51
78582;BME280;67878;46.242;5.974;2024-03-23T12:28:32;95432.63;;;21.52;40.56
78582;BME280;67878;46.242;5.974;2024-03-23T12:30:58;95409.81;;;21.52;40.62
78582;BME280;67878;46.242;5.974;2024-03-23T12:33:24;95430.81;;;21.52;40.66
78582;BME280;67878;46.242;5.974;2024-03-23T12:35:50;95404.72;;;21.51;40.55
78582;BME280;67878;46.242;5.974;2024-03-23T12:38:16;95399.44;;;21.51;40.51
78582;BME280;67878;46.242;5.974;2024-03-23T12:40:41;95413.41;;;21.51;40.53
78582;BME280;67878;46.242;5.974;2024-03-23T12:43:07;95408.16;;;21.51;40.46
78582;BME280;67878;46.242;5.974;2024-03-23T12:45:33;95386.31;;;21.51;40.38
78582;BME280;67878;46.242;5.974;2024-03-23T12:48:00;95398.63;;;21.50;40.57
78582;BME280;67878;46.242;5.974;2024-03-23T12:50:25;95384.50;;;21.51;40.76
78582;BME280;67878;46.242;5.974;2024-03-23T12:52:51;95382.88;;;21.50;40.66
78582;BME280;67878;46.242;5.974;2024-03-23T12:55:16;95368.72;;;21.51;40.64
78582;BME280;67878;46.242;5.974;2024-03-23T12:57:42;95387.13;;;21.51;40.54
78582;BME280;67878;46.242;5.974;2024-03-23T13:00:08;95381.72;;;21.53;40.58
78582;BME280;67878;46.242;5.974;2024-03-23T13:02:37;95386.81;;;21.54;40.56
78582;BME280;67878;46.242;5.974;2024-03-23T13:05:05;95371.84;;;21.55;40.49
78582;BME280;67878;46.242;5.974;2024-03-23T13:07:31;95389.44;;;21.54;40.39
78582;BME280;67878;46.242;5.974;2024-03-23T13:09:56;95385.97;;;21.54;40.38
78582;BME280;67878;46.242;5.974;2024-03-23T13:12:23;95371.03;;;21.54;40.27
78582;BME280;67878;46.242;5.974;2024-03-23T13:14:48;95374.47;;;21.55;40.35
78582;BME280;67878;46.242;5.974;2024-03-23T13:17:14;95389.44;;;21.54;40.23
78582;BME280;67878;46.242;5.974;2024-03-23T13:19:40;95373.66;;;21.54;40.18
78582;BME280;67878;46.242;5.974;2024-03-23T13:22:06;95385.00;;;21.55;40.15
78582;BME280;67878;46.242;5.974;2024-03-23T13:24:31;95392.88;;;21.55;40.47
78582;BME280;67878;46.242;5.974;2024-03-23T13:26:57;95393.69;;;21.55;40.02
78582;BME280;67878;46.242;5.974;2024-03-23T13:29:23;95391.88;;;21.56;40.12
78582;BME280;67878;46.242;5.974;2024-03-23T13:31:50;95372.31;;;21.58;40.24
78582;BME280;67878;46.242;5.974;2024-03-23T13:34:17;95361.81;;;21.58;40.51
78582;BME280;67878;46.242;5.974;2024-03-23T13:36:46;95373.13;;;21.59;40.20
78582;BME280;67878;46.242;5.974;2024-03-23T13:39:12;95371.31;;;21.59;40.43
78582;BME280;67878;46.242;5.974;2024-03-23T13:41:44;95371.50;;;21.58;40.69
78582;BME280;67878;46.242;5.974;2024-03-23T13:44:12;95380.19;;;21.58;40.94
78582;BME280;67878;46.242;5.974;2024-03-23T13:46:39;95372.31;;;21.58;40.99
78582;BME280;67878;46.242;5.974;2024-03-23T13:49:05;95350.47;;;21.58;40.99
78582;BME280;67878;46.242;5.974;2024-03-23T13:51:32;95345.22;;;21.58;41.20
78582;BME280;67878;46.242;5.974;2024-03-23T13:53:58;95354.94;;;21.57;41.10
78582;BME280;67878;46.242;5.974;2024-03-23T13:56:30;95350.63;;;21.56;41.59
78582;BME280;67878;46.242;5.974;2024-03-23T13:58:56;95355.09;;;21.56;41.74
78582;BME280;67878;46.242;5.974;2024-03-23T14:01:22;95352.47;;;21.56;41.68
78582;BME280;67878;46.242;5.974;2024-03-23T14:03:48;95353.47;;;21.55;41.81
78582;BME280;67878;46.242;5.974;2024-03-23T14:06:13;95343.09;;;21.53;42.01
78582;BME280;67878;46.242;5.974;2024-03-23T14:08:39;95350.00;;;21.54;42.08
78582;BME280;67878;46.242;5.974;2024-03-23T14:11:07;95360.53;;;21.54;42.41
78582;BME280;67878;46.242;5.974;2024-03-23T14:13:37;95354.44;;;21.54;42.48
78582;BME280;67878;46.242;5.974;2024-03-23T14:16:04;95357.91;;;21.54;42.56
78582;BME280;67878;46.242;5.974;2024-03-23T14:18:30;95346.53;;;21.54;42.68
78582;BME280;67878;46.242;5.974;2024-03-23T14:20:59;95353.47;;;21.55;42.76
78582;BME280;67878;46.242;5.974;2024-03-23T14:23:26;95353.63;;;21.53;42.66
78582;BME280;67878;46.242;5.974;2024-03-23T14:25:55;95341.47;;;21.52;43.03
78582;BME280;67878;46.242;5.974;2024-03-23T14:28:22;95352.00;;;21.52;42.69
78582;BME280;67878;46.242;5.974;2024-03-23T14:30:52;95358.22;;;21.51;42.87
78582;BME280;67878;46.242;5.974;2024-03-23T14:33:18;95348.72;;;21.50;42.72
78582;BME280;67878;46.242;5.974;2024-03-23T14:35:51;95340.81;;;21.50;42.83
78582;BME280;67878;46.242;5.974;2024-03-23T14:38:17;95335.75;;;21.48;42.67
78582;BME280;67878;46.242;5.974;2024-03-23T14:40:42;95332.28;;;21.48;42.74
78582;BME280;67878;46.242;5.974;2024-03-23T14:43:08;95338.56;;;21.47;42.64
78582;BME280;67878;46.242;5.974;2024-03-23T14:45:33;95336.94;;;21.46;42.79
78582;BME280;67878;46.242;5.974;2024-03-23T14:48:02;95330.84;;;21.45;42.84
78582;BME280;67878;46.242;5.974;2024-03-23T14:50:56;95335.28;;;21.45;42.79
78582;BME280;67878;46.242;5.974;2024-03-23T14:56:43;95352.84;;;21.44;42.63
78582;BME280;67878;46.242;5.974;2024-03-23T14:59:09;95349.41;;;21.44;42.46
78582;BME280;67878;46.242;5.974;2024-03-23T15:01:34;95353.03;;;21.43;42.20
78582;BME280;67878;46.242;5.974;2024-03-23T15:04:00;95353.03;;;21.43;42.24
78582;BME280;67878;46.242;5.974;2024-03-23T15:06:26;95334.81;;;21.41;41.96
78582;BME280;67878;46.242;5.974;2024-03-23T15:08:51;95335.81;;;21.40;41.81
78582;BME280;67878;46.242;5.974;2024-03-23T15:11:17;95336.78;;;21.39;41.79
78582;BME280;67878;46.242;5.974;2024-03-23T15:13:45;95338.44;;;21.40;41.75
78582;BME280;67878;46.242;5.974;2024-03-23T15:16:10;95349.91;;;21.39;41.58
78582;BME280;67878;46.242;5.974;2024-03-23T15:18:36;95343.84;;;21.39;41.58
78582;BME280;67878;46.242;5.974;2024-03-23T15:21:03;95335.16;;;21.38;41.29
78582;BME280;67878;46.242;5.974;2024-03-23T15:23:33;95333.53;;;21.37;41.36
78582;BME280;67878;46.242;5.974;2024-03-23T15:26:00;95334.34;;;21.38;41.26
78582;BME280;67878;46.242;5.974;2024-03-23T15:28:26;95330.22;;;21.35;41.13
78582;BME280;67878;46.242;5.974;2024-03-23T15:30:53;95317.09;;;21.35;41.17
78582;BME280;67878;46.242;5.974;2024-03-23T15:33:18;95318.91;;;21.35;41.16
78582;BME280;67878;46.242;5.974;2024-03-23T15:35:44;95312.81;;;21.34;41.11
78582;BME280;67878;46.242;5.974;2024-03-23T15:38:09;95314.63;;;21.34;41.10
78582;BME280;67878;46.242;5.974;2024-03-23T15:40:35;95316.63;;;21.32;41.20
78582;BME280;67878;46.242;5.974;2024-03-23T15:43:01;95316.63;;;21.32;41.16
78582;BME280;67878;46.242;5.974;2024-03-23T15:45:26;95322.69;;;21.32;40.95
78582;BME280;67878;46.242;5.974;2024-03-23T15:47:52;95334.16;;;21.31;41.14
78582;BME280;67878;46.242;5.974;2024-03-23T15:50:17;95319.41;;;21.30;41.25
78582;BME280;67878;46.242;5.974;2024-03-23T15:52:43;95305.47;;;21.30;41.21
78582;BME280;67878;46.242;5.974;2024-03-23T15:55:08;95298.41;;;21.30;41.31
78582;BME280;67878;46.242;5.974;2024-03-23T15:57:35;95310.38;;;21.33;41.45
78582;BME280;67878;46.242;5.974;2024-03-23T16:10:07;95285.63;;;21.27;41.38
78582;BME280;67878;46.242;5.974;2024-03-23T16:12:34;95307.44;;;21.27;41.67
78582;BME280;67878;46.242;5.974;2024-03-23T16:15:00;95306.16;;;21.23;41.53
78582;BME280;67878;46.242;5.974;2024-03-23T16:17:25;95302.53;;;21.24;41.42
78582;BME280;67878;46.242;5.974;2024-03-23T16:19:50;95300.91;;;21.23;41.51
78582;BME280;67878;46.242;5.974;2024-03-23T16:22:16;95300.91;;;21.23;41.29
78582;BME280;67878;46.242;5.974;2024-03-23T16:24:41;95291.56;;;21.21;41.32
78582;BME280;67878;46.242;5.974;2024-03-23T16:27:10;95297.78;;;21.20;41.11
78582;BME280;67878;46.242;5.974;2024-03-23T16:29:39;95296.97;;;21.19;41.32
78582;BME280;67878;46.242;5.974;2024-03-23T16:32:05;95295.50;;;21.17;41.17
78582;BME280;67878;46.242;5.974;2024-03-23T16:34:31;95290.25;;;21.17;40.85
78582;BME280;67878;46.242;5.974;2024-03-23T16:36:56;95288.63;;;21.16;40.97
78582;BME280;67878;46.242;5.974;2024-03-23T16:39:22;95297.53;;;21.15;40.96
78582;BME280;67878;46.242;5.974;2024-03-23T16:41:47;95296.69;;;21.14;40.78
78582;BME280;67878;46.242;5.974;2024-03-23T16:44:13;95295.88;;;21.14;41.01
78582;BME280;67878;46.242;5.974;2024-03-23T16:46:38;95298.69;;;21.12;40.97
78582;BME280;67878;46.242;5.974;2024-03-23T16:49:05;95304.75;;;21.13;40.88
78582;BME280;67878;46.242;5.974;2024-03-23T16:51:31;95286.53;;;21.11;41.10
78582;BME280;67878;46.242;5.974;2024-03-23T16:53:57;95296.22;;;21.11;40.86
78582;BME280;67878;46.242;5.974;2024-03-23T16:56:24;95292.78;;;21.10;40.71
78582;BME280;67878;46.242;5.974;2024-03-23T16:58:50;95290.31;;;21.09;40.88
78582;BME280;67878;46.242;5.974;2024-03-23T17:01:16;95289.50;;;21.08;40.83